createdAt,value
2022-08-04T00:03:17.631Z,2.25
2022-08-04T00:16:13.516Z,2.20
2022-08-04T00:21:18.179Z,1.95
2022-08-04T00:26:20.262Z,2.10
2022-08-04T00:31:54.289Z,2.20
2022-08-04T00:36:58.633Z,2.10
2022-08-04T00:45:35.730Z,2.30
2022-08-04T00:51:43.370Z,2.35
2022-08-04T00:57:09.565Z,2.30
2022-08-04T01:03:17.407Z,2.78
2022-08-04T01:14:58.248Z,2.58
2022-08-04T01:20:09.934Z,2.65
2022-08-04T01:25:39.874Z,2.30
2022-08-04T01:30:47.140Z,1.83
2022-08-04T01:35:55.288Z,1.90
2022-08-04T01:41:01.717Z,2.10
2022-08-04T01:46:04.389Z,2.37
2022-08-04T01:56:09.286Z,2.05
2022-08-04T02:01:12.697Z,2.72
2022-08-04T02:10:45.593Z,2.55
2022-08-04T02:18:03.950Z,2.42
2022-08-04T02:23:08.197Z,2.65
2022-08-04T02:28:29.513Z,2.40
2022-08-04T02:33:39.333Z,2.53
2022-08-04T02:38:53.607Z,2.28
2022-08-04T02:44:04.242Z,2.75
2022-08-04T02:49:07.874Z,2.37
2022-08-04T02:54:08.770Z,2.22
2022-08-04T02:59:11.267Z,2.40
2022-08-04T03:11:11.458Z,2.20
2022-08-04T03:19:57.636Z,2.70
2022-08-04T03:28:46.487Z,2.10
2022-08-04T03:34:24.707Z,2.45
2022-08-04T03:42:57.810Z,2.40
2022-08-04T03:49:39.658Z,2.87
2022-08-04T03:55:22.196Z,2.47
2022-08-04T04:00:33.918Z,2.40
2022-08-04T04:06:00.165Z,2.60
2022-08-04T04:12:52.885Z,2.67
2022-08-04T04:18:16.316Z,2.62
2022-08-04T04:23:54.298Z,2.37
2022-08-04T04:29:26.054Z,2.90
2022-08-04T04:36:19.031Z,2.35
2022-08-04T04:44:10.502Z,2.63
2022-08-04T04:49:25.313Z,2.78
2022-08-04T04:54:50.634Z,3.03
2022-08-04T04:59:56.290Z,2.80
2022-08-04T05:05:30.775Z,2.70
2022-08-04T05:12:44.950Z,2.50
2022-08-04T05:20:45.669Z,2.40
2022-08-04T05:25:59.374Z,2.78
2022-08-04T05:31:04.625Z,2.42
2022-08-04T05:36:23.478Z,2.80
2022-08-04T05:41:32.167Z,2.85
2022-08-04T05:46:54.241Z,3.30
2022-08-04T05:52:02.685Z,3.83
2022-08-04T05:57:05.078Z,2.85
2022-08-04T06:07:10.433Z,3.80
2022-08-04T06:12:18.273Z,3.40
2022-08-04T06:18:33.174Z,3.50
2022-08-04T06:25:05.447Z,3.20
2022-08-04T06:30:13.489Z,3.08
2022-08-04T06:35:18.977Z,3.00
2022-08-04T06:40:31.965Z,2.90
2022-08-04T06:45:36.347Z,2.70
2022-08-04T06:51:32.149Z,2.50
2022-08-04T06:56:38.825Z,2.75
2022-08-04T07:01:40.836Z,2.83
2022-08-04T07:06:42.072Z,2.70
2022-08-04T07:11:44.851Z,3.00
2022-08-04T07:16:49.285Z,2.65
2022-08-04T07:22:16.264Z,2.92
2022-08-04T07:27:47.899Z,2.90
2022-08-04T07:32:50.348Z,3.22
2022-08-04T07:37:51.174Z,3.03
2022-08-04T07:42:52.918Z,2.70
2022-08-04T07:48:05.198Z,3.47
2022-08-04T07:53:54.493Z,3.00
2022-08-04T07:58:57.644Z,3.42
2022-08-04T08:03:59.822Z,3.60
2022-08-04T08:09:13.510Z,3.40
2022-08-04T08:14:16.701Z,3.10
2022-08-04T08:19:18.006Z,3.37
2022-08-04T08:24:18.883Z,3.50
2022-08-04T08:29:20.599Z,3.33
2022-08-04T08:34:27.988Z,2.78
2022-08-04T08:41:08.966Z,3.28
2022-08-04T08:47:01.434Z,3.17
2022-08-04T08:52:56.626Z,2.97
2022-08-04T09:03:18.500Z,3.75
2022-08-04T09:08:54.829Z,3.45
2022-08-04T09:14:01.433Z,3.45
2022-08-04T09:19:09.659Z,3.17
2022-08-04T09:24:35.684Z,3.60
2022-08-04T09:30:01.211Z,3.28
2022-08-04T09:48:38.998Z,3.33
2022-08-04T09:54:01.707Z,3.47
2022-08-04T10:00:42.443Z,3.03
2022-08-04T10:09:12.548Z,2.97
2022-08-04T10:14:39.720Z,2.90
2022-08-04T10:19:41.569Z,3.90
2022-08-04T10:31:35.804Z,3.10
2022-08-04T10:38:15.538Z,2.72
2022-08-04T10:43:42.075Z,2.65
2022-08-04T10:49:14.126Z,2.10
2022-08-04T10:54:25.813Z,1.95
2022-08-04T10:59:38.022Z,2.00
2022-08-04T11:04:47.927Z,2.35
2022-08-04T11:09:49.306Z,2.90
2022-08-04T11:15:10.311Z,2.47
2022-08-04T11:20:34.555Z,2.85
2022-08-04T11:26:20.815Z,2.20
2022-08-04T11:31:47.358Z,2.45
2022-08-04T11:37:20.091Z,2.33
2022-08-04T11:43:04.219Z,2.45
2022-08-04T11:48:19.488Z,2.15
2022-08-04T11:53:34.694Z,2.25
2022-08-04T11:58:38.217Z,2.15
2022-08-04T12:05:36.058Z,2.15
2022-08-04T12:11:12.913Z,2.20
2022-08-04T12:17:04.207Z,2.17
2022-08-04T12:22:15.029Z,2.20
2022-08-04T12:27:30.541Z,2.33
2022-08-04T12:32:48.254Z,2.12
2022-08-04T12:38:11.360Z,2.30
2022-08-04T12:44:36.248Z,2.17
2022-08-04T12:49:43.451Z,2.00
2022-08-04T12:54:55.933Z,2.22
2022-08-04T12:59:58.132Z,2.45
2022-08-04T13:05:03.846Z,2.12
2022-08-04T13:10:12.601Z,2.08
2022-08-04T13:15:21.964Z,2.33
2022-08-04T13:20:35.462Z,2.55
2022-08-04T13:26:43.710Z,2.33
2022-08-04T13:31:55.075Z,2.10
2022-08-04T13:36:58.663Z,2.45
2022-08-04T13:42:04.181Z,2.47
2022-08-04T13:47:14.673Z,2.47
2022-08-04T13:52:15.898Z,2.28
2022-08-04T13:57:23.074Z,2.35
2022-08-04T14:02:37.435Z,2.17
2022-08-04T14:07:45.917Z,2.50
2022-08-04T14:12:50.035Z,2.42
2022-08-04T14:17:50.903Z,2.47
2022-08-04T14:23:01.696Z,2.58
2022-08-04T14:28:02.796Z,2.97
2022-08-04T14:34:01.504Z,2.33
2022-08-04T14:39:06.544Z,2.00
2022-08-04T14:44:07.547Z,2.25
2022-08-04T14:49:11.634Z,2.58
2022-08-04T14:54:18.410Z,2.15
2022-08-04T14:59:21.223Z,2.28
2022-08-04T15:04:24.429Z,2.42
2022-08-04T15:09:25.796Z,2.25
2022-08-04T15:14:36.915Z,2.17
2022-08-04T15:19:39.347Z,2.00
2022-08-04T15:24:40.206Z,2.50
2022-08-04T15:30:00.664Z,2.03
2022-08-04T15:35:06.043Z,2.00
2022-08-04T15:40:27.135Z,1.95
2022-08-04T15:46:43.183Z,1.60
2022-08-04T15:51:45.695Z,1.80
2022-08-04T15:57:01.391Z,1.90
2022-08-04T16:02:29.493Z,1.95
2022-08-04T16:08:31.409Z,1.90
2022-08-04T16:13:32.436Z,1.90
2022-08-04T16:18:38.551Z,1.65
2022-08-04T16:24:06.484Z,2.00
2022-08-04T16:29:31.253Z,1.90
2022-08-04T16:34:54.030Z,1.98
2022-08-04T16:40:37.710Z,2.03
2022-08-04T16:45:45.383Z,2.00
2022-08-04T16:51:06.066Z,1.90
2022-08-04T16:56:10.238Z,1.90
2022-08-04T17:01:32.185Z,2.03
2022-08-04T17:06:37.291Z,1.80
2022-08-04T17:11:39.101Z,2.28
2022-08-04T17:16:41.914Z,2.40
2022-08-04T17:21:43.855Z,2.30
2022-08-04T17:26:53.741Z,2.05
2022-08-04T17:31:55.722Z,2.30
2022-08-04T17:37:24.102Z,2.40
2022-08-04T17:42:38.838Z,2.75
2022-08-04T17:47:51.765Z,2.42
2022-08-04T17:53:11.953Z,2.57
2022-08-04T17:58:21.533Z,1.95
2022-08-04T18:03:29.856Z,2.12
2022-08-04T18:08:39.048Z,1.85
2022-08-04T18:13:43.346Z,2.10
2022-08-04T18:19:06.256Z,2.25
2022-08-04T18:24:07.482Z,2.45
2022-08-04T18:29:26.614Z,2.75
2022-08-04T18:34:32.464Z,2.83
2022-08-04T18:40:24.934Z,2.85
2022-08-04T18:45:34.309Z,2.90
2022-08-04T18:51:09.223Z,2.75
2022-08-04T18:56:19.941Z,2.55
2022-08-04T19:02:13.700Z,2.90
2022-08-04T19:07:24.682Z,2.80
2022-08-04T19:12:32.568Z,2.50
2022-08-04T19:17:53.856Z,3.35
2022-08-04T19:24:28.692Z,3.12
2022-08-04T19:29:40.782Z,2.75
2022-08-04T19:34:46.334Z,3.30
2022-08-04T19:39:48.356Z,2.75
2022-08-04T19:44:49.328Z,2.80
2022-08-04T19:50:05.432Z,3.28
2022-08-04T19:55:11.792Z,3.37
2022-08-04T20:00:13.590Z,3.13
2022-08-04T20:05:16.198Z,2.85
2022-08-04T20:10:18.261Z,2.80
2022-08-04T20:15:25.175Z,2.75
2022-08-04T20:20:26.006Z,2.65
2022-08-04T20:25:36.490Z,2.78
2022-08-04T20:30:38.840Z,2.87
2022-08-04T20:36:00.706Z,3.22
2022-08-04T20:41:05.655Z,3.00
2022-08-04T22:30:17.050Z,3.55
2022-08-04T22:35:35.546Z,4.45
2022-08-04T22:40:47.563Z,4.37
2022-08-04T22:45:48.624Z,4.15
2022-08-04T22:50:52.442Z,4.82
2022-08-04T22:56:06.296Z,4.80
2022-08-04T23:01:09.443Z,5.57
2022-08-04T23:06:11.918Z,5.25
2022-08-04T23:16:13.721Z,5.97
2022-08-04T23:21:14.611Z,8.02
2022-08-04T23:26:15.854Z,7.45
2022-08-04T23:31:17.168Z,10.95
2022-08-04T23:36:29.552Z,16.87
2022-08-04T23:41:53.815Z,14.70
2022-08-04T23:47:01.428Z,14.10
2022-08-04T23:52:03.524Z,15.63
2022-08-04T23:57:08.916Z,18.33
